Time;durP1;ratioP1;P1;durP2;ratioP2;P2;SDS_P1;SDS_P2;PMS_P1;PMS_P2;Temp;Humidity;BMP_temperature;BMP_pressure;BME280_temperature;BME280_humidity;BME280_pressure;Samples;Min_cycle;Max_cycle;Signal;HPM_P1;HPM_P2
2022/06/07 00:00:41;;;;;;;14.40;11.20;;;;;;;17.54;79.89;97842.69;108714;1284;22401;-82
2022/06/07 00:03:09;;;;;;;12.10;10.30;;;;;;;17.58;79.94;97843.52;108706;1283;22569;-83
2022/06/07 00:05:40;;;;;;;12.10;10.90;;;;;;;17.59;80.18;97842.66;108687;1284;22233;-82
2022/06/07 00:08:08;;;;;;;12.90;11.60;;;;;;;17.59;80.18;97837.92;108709;1284;22347;-82
2022/06/07 00:10:36;;;;;;;12.80;11.30;;;;;;;17.55;80.76;97834.94;108711;1284;22472;-81
2022/06/07 00:13:05;;;;;;;12.10;10.90;;;;;;;17.55;80.33;97828.92;108694;1284;22507;-82
2022/06/07 00:15:33;;;;;;;12.90;9.40;;;;;;;17.51;80.41;97826.80;108742;1284;22984;-82
2022/06/07 00:18:01;;;;;;;10.50;9.20;;;;;;;17.45;80.71;97826.00;108798;1282;22622;-81
2022/06/07 00:20:29;;;;;;;10.40;9.40;;;;;;;17.35;80.72;97820.34;108842;1282;23157;-82
2022/06/07 00:22:58;;;;;;;11.90;10.70;;;;;;;17.25;81.03;97817.02;108651;1283;22273;-82
2022/06/07 00:25:26;;;;;;;11.40;10.20;;;;;;;17.16;81.54;97814.80;108798;1282;22388;-82
2022/06/07 00:27:54;;;;;;;10.70;9.70;;;;;;;17.08;81.39;97816.36;108556;1284;23180;-83
2022/06/07 00:30:22;;;;;;;11.60;9.30;;;;;;;17.05;81.35;97814.55;108592;1281;22988;-82
2022/06/07 00:32:50;;;;;;;10.90;9.80;;;;;;;17.01;82.06;97813.13;108628;1283;23202;-82
2022/06/07 00:35:19;;;;;;;11.00;10.00;;;;;;;16.99;82.71;97811.97;108798;1283;22389;-83
2022/06/07 00:37:48;;;;;;;11.60;10.00;;;;;;;16.95;82.84;97807.19;108824;1283;22324;-82
2022/06/07 00:40:16;;;;;;;10.80;9.70;;;;;;;16.93;82.91;97799.89;108840;1282;23008;-82
2022/06/07 00:42:44;;;;;;;13.60;10.10;;;;;;;16.91;82.55;97801.31;108638;1283;22284;-82
2022/06/07 00:45:18;;;;;;;11.20;10.10;;;;;;;16.91;82.46;97799.61;108796;1283;22282;-82
2022/06/07 00:47:47;;;;;;;10.90;9.90;;;;;;;16.92;82.22;97795.59;108774;1282;23132;-82
2022/06/07 00:50:30;;;;;;;11.90;10.70;;;;;;;16.92;82.24;97795.73;108607;1283;22376;-82
2022/06/07 00:52:59;;;;;;;12.50;11.20;;;;;;;16.93;82.16;97793.52;108836;1282;22284;-82
2022/06/07 00:55:27;;;;;;;12.60;11.10;;;;;;;16.95;82.34;97788.28;108821;1282;22434;-84
2022/06/07 00:58:04;;;;;;;12.40;11.00;;;;;;;17.00;82.28;97785.23;108701;1283;22309;-83
2022/06/07 01:00:39;;;;;;;12.60;9.40;;;;;;;17.08;82.08;97784.78;108681;1283;22372;-82
2022/06/07 01:03:08;;;;;;;12.80;9.80;;;;;;;17.16;82.25;97781.61;108659;1283;23184;-82
2022/06/07 01:05:37;;;;;;;11.40;10.30;;;;;;;17.25;82.38;97781.78;108657;1283;22350;-82
2022/06/07 01:10:58;;;;;;;11.10;10.00;;;;;;;17.38;82.00;97790.39;108669;1283;22273;-83
2022/06/07 01:13:35;;;;;;;12.20;10.20;;;;;;;17.39;81.69;97791.05;108663;1283;22451;-84
2022/06/07 01:16:13;;;;;;;11.50;10.40;;;;;;;17.38;81.41;97789.52;108464;1285;22476;-84
2022/06/07 01:18:43;;;;;;;11.60;10.40;;;;;;;17.38;81.37;97785.03;108629;1284;22289;-83
2022/06/07 01:21:28;;;;;;;11.40;10.40;;;;;;;17.39;81.30;97784.98;108630;1284;22427;-83
2022/06/07 01:23:56;;;;;;;12.90;10.40;;;;;;;17.33;81.07;97783.95;108811;1283;22349;-83
2022/06/07 01:26:28;;;;;;;19.00;11.00;;;;;;;17.26;81.00;97783.44;108636;1283;22351;-83
2022/06/07 01:29:02;;;;;;;11.20;10.10;;;;;;;17.21;81.06;97777.22;108618;1283;22388;-83
2022/06/07 01:31:33;;;;;;;10.90;8.70;;;;;;;17.17;81.06;97777.52;108978;1282;22374;-88
2022/06/07 01:34:06;;;;;;;13.90;10.00;;;;;;;17.14;81.08;97769.41;108559;1282;22276;-83
2022/06/07 01:36:33;;;;;;;11.30;10.20;;;;;;;17.05;80.68;97773.21;108818;1282;22289;-84
2022/06/07 01:41:55;;;;;;;10.90;9.90;;;;;;;16.65;81.27;97772.65;108847;1282;22986;-85
2022/06/07 01:44:35;;;;;;;10.50;9.10;;;;;;;16.41;81.15;97769.50;108516;1283;22375;-85
2022/06/07 01:47:04;;;;;;;;;;;;;;;16.25;81.31;97766.27;108874;1283;22995;-85
2022/06/07 01:49:34;;;;;;;9.70;8.80;;;;;;;16.13;81.26;97769.98;108614;1283;22251;-85
2022/06/07 01:52:04;;;;;;;11.50;9.80;;;;;;;16.04;81.72;97770.77;108839;1282;22324;-85
2022/06/07 01:54:34;;;;;;;10.50;9.30;;;;;;;15.89;82.01;97768.49;108654;1283;22441;-86
2022/06/07 01:57:05;;;;;;;10.10;8.20;;;;;;;15.84;83.61;97767.30;109052;1283;22392;-93
2022/06/07 01:59:35;;;;;;;8.90;8.00;;;;;;;16.25;86.79;97765.96;108873;1283;22969;-92
2022/06/07 02:02:03;;;;;;;8.90;7.50;;;;;;;16.69;86.30;97770.05;108841;1284;22340;-93
2022/06/07 02:04:32;;;;;;;12.60;7.80;;;;;;;16.91;83.83;97766.09;108708;1283;22301;-93
2022/06/07 02:07:00;;;;;;;8.90;8.00;;;;;;;16.86;82.56;97767.23;108946;1282;22382;-93
2022/06/07 02:09:35;;;;;;;9.80;6.50;;;;;;;16.82;82.74;97765.33;109227;1283;22377;-90
2022/06/07 02:12:03;;;;;;;8.00;7.20;;;;;;;16.95;84.14;97764.40;108818;1283;22322;-92
2022/06/07 02:14:32;;;;;;;9.60;7.90;;;;;;;17.31;86.00;97765.39;109306;1282;22530;-93
2022/06/07 02:17:00;;;;;;;9.50;8.50;;;;;;;17.64;85.00;97763.56;109272;1282;22482;-93
2022/06/07 02:20:26;;;;;;;11.70;9.30;;;;;;;17.73;82.28;97761.77;108645;1284;22385;-94
2022/06/07 02:22:54;;;;;;;10.60;7.10;;;;;;;17.70;82.87;97757.73;109110;1282;22323;-91
2022/06/07 02:25:22;;;;;;;8.80;7.70;;;;;;;17.88;83.38;97757.99;108867;1282;22364;-92
2022/06/07 02:27:52;;;;;;;8.30;7.30;;;;;;;18.07;82.76;97758.70;108741;1282;23280;-90
2022/06/07 02:30:48;;;;;;;8.70;7.50;;;;;;;17.96;80.71;97755.85;109152;1271;22737;-85
2022/06/07 02:33:16;;;;;;;10.80;9.80;;;;;;;17.56;80.17;97755.08;108964;1273;23357;-92
2022/06/07 02:35:45;;;;;;;9.80;8.80;;;;;;;17.22;80.43;97757.56;109237;1273;23199;-93
2022/06/07 02:38:14;;;;;;;9.60;8.70;;;;;;;16.98;80.62;97755.31;108929;1284;22329;-92
2022/06/07 02:40:45;;;;;;;11.10;9.10;;;;;;;16.77;80.66;97754.91;109212;1273;22637;-81
2022/06/07 02:43:13;;;;;;;10.90;9.60;;;;;;;16.57;80.54;97754.92;109295;1280;23127;-81
2022/06/07 02:45:41;;;;;;;12.60;11.40;;;;;;;16.47;80.68;97746.59;109282;1280;23167;-80
2022/06/07 02:48:09;;;;;;;11.50;10.30;;;;;;;16.39;80.90;97745.95;108995;1279;22346;-81
2022/06/07 02:50:39;;;;;;;11.40;10.10;;;;;;;16.20;80.35;97749.96;108989;1280;22439;-81
2022/06/07 02:53:07;;;;;;;11.70;10.60;;;;;;;15.81;80.56;97753.31;109289;1280;22366;-81
2022/06/07 02:55:36;;;;;;;12.70;10.70;;;;;;;15.53;81.28;97752.17;109002;1280;22403;-80
2022/06/07 02:58:13;;;;;;;11.80;10.60;;;;;;;15.32;81.39;97754.77;108829;1280;23143;-81
2022/06/07 03:00:41;;;;;;;11.90;10.70;;;;;;;15.20;81.65;97757.27;109003;1280;22481;-81
2022/06/07 03:03:10;;;;;;;10.80;9.70;;;;;;;15.12;81.95;97760.79;109264;1280;22514;-81
2022/06/07 03:05:40;;;;;;;12.30;11.10;;;;;;;15.14;81.93;97757.89;108987;1280;23712;-81
2022/06/07 03:08:09;;;;;;;12.20;11.10;;;;;;;15.09;81.99;97761.19;108968;1280;22356;-81
2022/06/07 03:10:37;;;;;;;14.90;12.30;;;;;;;15.09;82.26;97756.16;109277;1280;22449;-81
2022/06/07 03:13:05;;;;;;;13.00;11.70;;;;;;;15.11;82.10;97758.75;109153;1280;22430;-81
2022/06/07 03:15:33;;;;;;;13.10;11.80;;;;;;;15.08;82.20;97762.88;109282;1280;22306;-82
2022/06/07 03:18:04;;;;;;;13.60;12.10;;;;;;;15.06;82.93;97758.15;109261;1280;22456;-82
2022/06/07 03:20:38;;;;;;;15.80;13.20;;;;;;;15.01;83.44;97758.56;108935;1280;23021;-82
2022/06/07 03:23:07;;;;;;;13.70;12.40;;;;;;;14.92;83.45;97758.58;108946;1280;22507;-82
2022/06/07 03:25:36;;;;;;;13.40;12.10;;;;;;;14.85;83.93;97763.71;109250;1280;22305;-81
2022/06/07 03:28:05;;;;;;;13.30;12.00;;;;;;;14.81;84.57;97762.01;108971;1280;23109;-82
2022/06/07 03:30:34;;;;;;;14.00;12.70;;;;;;;14.80;85.19;97760.95;109280;1280;22360;-81
2022/06/07 03:33:02;;;;;;;13.50;12.10;;;;;;;14.78;85.06;97762.91;108739;1280;22252;-81
2022/06/07 03:35:31;;;;;;;14.60;12.90;;;;;;;14.78;84.89;97761.38;108944;1280;23113;-81
2022/06/07 03:38:00;;;;;;;15.50;12.40;;;;;;;14.86;85.30;97762.77;109267;1280;22282;-81
2022/06/07 03:40:44;;;;;;;13.70;12.50;;;;;;;14.93;85.17;97760.26;109406;1280;22652;-82
2022/06/07 03:43:16;;;;;;;14.80;13.40;;;;;;;15.00;85.74;97761.71;109215;1280;22364;-81
2022/06/07 03:45:44;;;;;;;16.30;14.60;;;;;;;15.02;85.77;97761.17;109388;1280;22369;-81
2022/06/07 03:48:15;;;;;;;16.50;14.90;;;;;;;15.01;85.75;97764.88;108978;1280;22577;-81
2022/06/07 03:50:46;;;;;;;15.40;13.90;;;;;;;15.10;86.34;97767.77;109029;1280;22372;-81
2022/06/07 03:58:03;;;;;;;12.00;10.90;;;;;;;15.44;86.06;97761.71;109313;1280;22300;-81
2022/06/07 04:00:31;;;;;;;10.90;9.90;;;;;;;15.65;86.78;97757.27;109283;1280;22252;-82
2022/06/07 04:02:59;;;;;;;14.60;13.30;;;;;;;15.85;86.68;97746.85;109034;1280;22420;-82
2022/06/07 04:05:27;;;;;;;14.40;13.10;;;;;;;16.12;87.02;97743.23;108945;1281;22331;-82
2022/06/07 04:08:11;;;;;;;13.60;12.40;;;;;;;16.29;86.82;97745.02;108955;1280;22454;-81
2022/06/07 04:10:54;;;;;;;13.30;12.10;;;;;;;16.42;85.85;97748.46;108928;1281;23067;-81
2022/06/07 04:13:28;;;;;;;26.30;22.30;;;;;;;16.47;86.08;97752.06;109014;1280;22415;-81
2022/06/07 04:15:58;;;;;;;28.90;23.30;;;;;;;16.46;86.19;97745.85;108924;1281;22418;-82
2022/06/07 04:18:27;;;;;;;30.80;27.10;;;;;;;16.46;86.34;97752.95;108931;1280;22302;-82
2022/06/07 04:20:58;;;;;;;25.20;22.50;;;;;;;16.48;86.29;97745.39;108947;1281;22472;-82
2022/06/07 04:23:27;;;;;;;21.80;18.50;;;;;;;16.59;86.40;97742.23;108937;1280;22333;-82
2022/06/07 04:25:55;;;;;;;15.40;13.60;;;;;;;16.73;86.38;97741.89;108929;1280;22148;-82
2022/06/07 04:28:24;;;;;;;13.60;12.30;;;;;;;16.92;86.78;97741.48;109026;1280;22237;-82
2022/06/07 04:30:52;;;;;;;13.60;12.10;;;;;;;17.17;86.74;97739.70;109082;1281;22393;-82
2022/06/07 04:33:25;;;;;;;15.60;13.40;;;;;;;17.39;86.65;97738.52;108959;1281;22260;-82
2022/06/07 04:35:54;;;;;;;13.20;11.90;;;;;;;17.60;86.77;97739.24;108958;1281;23135;-82
2022/06/07 04:38:25;;;;;;;13.00;11.70;;;;;;;17.78;86.74;97734.02;108764;1281;23011;-82
2022/06/07 04:40:53;;;;;;;11.80;10.50;;;;;;;17.98;86.17;97738.70;108946;1280;22422;-82
2022/06/07 04:43:21;;;;;;;10.70;9.70;;;;;;;18.11;85.73;97736.53;109002;1281;22414;-82
2022/06/07 04:45:50;;;;;;;11.70;10.30;;;;;;;18.25;85.64;97734.21;108907;1281;22388;-82
2022/06/07 04:48:24;;;;;;;11.70;10.50;;;;;;;18.35;85.17;97735.55;108914;1280;22518;-82
2022/06/07 04:51:11;;;;;;;10.90;9.70;;;;;;;18.38;84.88;97738.05;109236;1280;22269;-82
2022/06/07 04:53:50;;;;;;;11.70;9.80;;;;;;;18.47;85.09;97737.77;108756;1281;22433;-82
2022/06/07 04:56:22;;;;;;;11.20;10.00;;;;;;;18.64;85.02;97736.04;108853;1280;22426;-82
2022/06/07 04:58:50;;;;;;;13.50;9.20;;;;;;;18.77;84.50;97735.66;108827;1280;22616;-81
2022/06/07 05:01:31;;;;;;;10.10;9.00;;;;;;;18.86;84.25;97734.48;108922;1281;22940;-82
2022/06/07 05:04:04;;;;;;;10.10;9.10;;;;;;;18.94;83.92;97733.15;108744;1281;23185;-82
2022/06/07 05:06:36;;;;;;;8.80;7.70;;;;;;;18.97;83.61;97737.68;108902;1280;22370;-82
2022/06/07 05:09:22;;;;;;;8.60;7.80;;;;;;;18.99;83.30;97737.30;108756;1280;22412;-82
2022/06/07 05:11:55;;;;;;;12.70;7.70;;;;;;;19.02;83.26;97739.49;108964;1280;22347;-82
2022/06/07 05:14:24;;;;;;;8.80;6.30;;;;;;;19.09;83.08;97743.30;108780;1281;22381;-82
2022/06/07 05:16:52;;;;;;;10.80;7.10;;;;;;;19.14;82.94;97741.52;108871;1280;22406;-82
2022/06/07 05:19:24;;;;;;;6.30;5.50;;;;;;;19.19;82.74;97748.27;108909;1281;22305;-82
2022/06/07 05:22:01;;;;;;;10.30;6.10;;;;;;;19.26;82.65;97746.77;108994;1281;22951;-82
2022/06/07 05:24:31;;;;;;;7.30;6.20;;;;;;;19.34;82.08;97754.59;108976;1280;22291;-82
2022/06/07 05:27:02;;;;;;;11.60;6.90;;;;;;;19.39;81.76;97755.61;108770;1284;22390;-82
2022/06/07 05:29:44;;;;;;;8.80;7.60;;;;;;;19.49;81.68;97760.80;108975;1280;22262;-82
2022/06/07 05:32:13;;;;;;;9.90;7.60;;;;;;;19.53;80.55;97760.73;108917;1280;22377;-82
2022/06/07 05:34:45;;;;;;;11.10;8.20;;;;;;;19.54;80.41;97767.30;108999;1281;23081;-82
2022/06/07 05:37:17;;;;;;;9.40;7.80;;;;;;;19.56;80.46;97761.79;108903;1281;22468;-82
2022/06/07 05:39:46;;;;;;;10.10;9.00;;;;;;;19.65;80.23;97761.61;109023;1281;22362;-81
2022/06/07 05:42:16;;;;;;;9.60;7.40;;;;;;;19.73;79.77;97765.42;108951;1280;22429;-82
2022/06/07 05:44:45;;;;;;;7.60;5.90;;;;;;;19.80;78.86;97765.49;109234;1280;22591;-82
2022/06/07 05:47:13;;;;;;;9.00;6.80;;;;;;;19.91;79.22;97765.06;108943;1280;23019;-81
2022/06/07 05:49:46;;;;;;;9.40;7.30;;;;;;;20.05;78.85;97766.94;108850;1281;22305;-82
2022/06/07 05:52:19;;;;;;;10.30;7.00;;;;;;;20.16;78.69;97769.55;108813;1281;23273;-81
2022/06/07 05:54:47;;;;;;;9.20;6.40;;;;;;;20.27;78.52;97763.73;108921;1281;22411;-82
2022/06/07 05:57:15;;;;;;;9.60;6.40;;;;;;;20.42;78.48;97763.11;108935;1281;23259;-81
2022/06/07 05:59:44;;;;;;;7.50;6.40;;;;;;;20.54;77.95;97765.48;108994;1280;22358;-81
2022/06/07 06:02:13;;;;;;;8.40;6.70;;;;;;;20.66;77.79;97759.59;108919;1280;22315;-80
2022/06/07 06:04:42;;;;;;;8.30;6.70;;;;;;;20.76;77.57;97756.77;108943;1280;22305;-80
2022/06/07 06:07:10;;;;;;;9.50;6.10;;;;;;;20.80;76.31;97759.09;109224;1280;22422;-80
2022/06/07 06:12:33;;;;;;;9.70;6.60;;;;;;;20.95;76.74;97753.59;108929;1280;22301;-80
2022/06/07 06:15:14;;;;;;;8.60;7.40;;;;;;;21.02;74.64;97753.83;109211;1280;22483;-81
2022/06/07 06:17:42;;;;;;;8.10;7.30;;;;;;;20.98;75.30;97746.72;108902;1283;22365;-81
2022/06/07 06:20:23;;;;;;;8.80;6.50;;;;;;;21.07;75.57;97746.54;108922;1280;22458;-82
2022/06/07 06:22:53;;;;;;;9.80;8.00;;;;;;;21.20;75.28;97747.56;108932;1280;22270;-81
2022/06/07 06:25:22;;;;;;;8.80;5.80;;;;;;;21.30;74.52;97739.79;108972;1280;23067;-81
2022/06/07 06:27:50;;;;;;;8.10;7.30;;;;;;;21.39;73.26;97741.09;108994;1280;22504;-81
2022/06/07 06:30:20;;;;;;;8.30;7.50;;;;;;;21.41;73.42;97736.88;108963;1280;22810;-81
2022/06/07 06:32:55;;;;;;;8.30;6.70;;;;;;;21.47;73.36;97734.60;108988;1280;22470;-81
2022/06/07 06:35:24;;;;;;;8.60;7.10;;;;;;;21.57;72.57;97730.02;108755;1280;22524;-80
2022/06/07 06:37:53;;;;;;;8.00;6.60;;;;;;;21.63;72.69;97728.11;108912;1280;22477;-81
2022/06/07 06:40:21;;;;;;;7.70;6.30;;;;;;;21.75;73.13;97725.34;108924;1280;23160;-81
2022/06/07 06:42:56;;;;;;;7.50;6.80;;;;;;;21.90;72.70;97724.08;108946;1280;22996;-82
2022/06/07 06:45:50;;;;;;;7.20;6.40;;;;;;;22.05;72.34;97729.45;108948;1280;22405;-81
2022/06/07 06:48:21;;;;;;;7.00;6.10;;;;;;;22.16;72.56;97725.88;108936;1280;22507;-81
2022/06/07 06:50:59;;;;;;;8.30;7.40;;;;;;;22.32;71.23;97728.62;108914;1280;22253;-81
2022/06/07 06:53:27;;;;;;;8.60;5.90;;;;;;;22.38;71.14;97727.41;108883;1279;22480;-82
2022/06/07 06:55:59;;;;;;;10.30;6.50;;;;;;;22.50;71.47;97729.07;108913;1279;22295;-81
2022/06/07 06:58:28;;;;;;;16.10;10.70;;;;;;;22.64;71.04;97724.91;108980;1280;23045;-81
2022/06/07 07:01:08;;;;;;;7.00;5.70;;;;;;;22.72;67.93;97729.37;108920;1280;22402;-82
2022/06/07 07:03:39;;;;;;;9.30;7.90;;;;;;;22.75;68.99;97724.59;109271;1280;22550;-83
2022/06/07 07:06:10;;;;;;;6.00;4.90;;;;;;;22.83;69.42;97720.70;108954;1280;23042;-82
2022/06/07 07:08:41;;;;;;;12.00;7.80;;;;;;;22.98;68.87;97718.54;108774;1280;22413;-82
2022/06/07 07:11:26;;;;;;;8.80;6.10;;;;;;;23.04;68.11;97721.71;108824;1281;22469;-81
2022/06/07 07:13:57;;;;;;;7.80;5.90;;;;;;;23.11;67.30;97720.80;108854;1281;22508;-81
2022/06/07 07:16:29;;;;;;;5.80;4.20;;;;;;;23.14;67.24;97725.99;108549;1283;22500;-81
2022/06/07 07:18:58;;;;;;;5.30;3.90;;;;;;;23.23;67.39;97725.65;108742;1281;22405;-81
2022/06/07 07:21:34;;;;;;;5.00;3.90;;;;;;;23.40;67.62;97721.39;108837;1281;22347;-81
2022/06/07 07:24:08;;;;;;;4.40;3.80;;;;;;;23.53;66.54;97727.09;108813;1283;22955;-81
2022/06/07 07:26:38;;;;;;;4.60;4.20;;;;;;;23.65;65.36;97728.36;108741;1281;22406;-82
2022/06/07 07:29:06;;;;;;;4.60;3.90;;;;;;;23.70;65.84;97728.77;109135;1280;22260;-81
2022/06/07 07:31:36;;;;;;;4.50;3.90;;;;;;;23.75;64.17;97729.35;109133;1281;22403;-81
2022/06/07 07:34:08;;;;;;;5.50;4.30;;;;;;;23.81;65.75;97726.23;108830;1281;22470;-81
2022/06/07 07:36:41;;;;;;;6.10;3.80;;;;;;;23.96;65.09;97723.74;108810;1281;22543;-82
2022/06/07 07:39:11;;;;;;;5.10;3.90;;;;;;;24.01;64.22;97724.61;108724;1281;22321;-81
2022/06/07 07:41:40;;;;;;;5.70;4.30;;;;;;;24.00;62.68;97724.45;108843;1281;22994;-81
2022/06/07 07:44:13;;;;;;;5.80;4.30;;;;;;;23.85;62.42;97721.13;109164;1281;22842;-81
2022/06/07 07:46:44;;;;;;;6.40;4.60;;;;;;;23.80;62.90;97717.50;108871;1281;22401;-81
2022/06/07 07:49:15;;;;;;;7.30;5.10;;;;;;;23.78;62.14;97716.40;108625;1281;22294;-80
2022/06/07 07:51:46;;;;;;;12.50;5.80;;;;;;;23.73;61.36;97710.35;108892;1280;22357;-81
2022/06/07 07:54:18;;;;;;;6.60;3.60;;;;;;;23.70;61.25;97712.37;108877;1281;22730;-82
2022/06/07 07:56:46;;;;;;;10.30;5.70;;;;;;;23.74;61.85;97707.43;108863;1282;22398;-83
2022/06/07 07:59:20;;;;;;;7.50;5.10;;;;;;;23.74;60.90;97707.59;108954;1281;22298;-83
2022/06/07 08:01:50;;;;;;;4.90;3.80;;;;;;;23.81;60.98;97700.20;108862;1281;22386;-83
2022/06/07 08:04:19;;;;;;;4.60;3.80;;;;;;;23.89;60.71;97698.18;108884;1281;22250;-83
2022/06/07 08:06:49;;;;;;;5.90;3.40;;;;;;;23.93;59.84;97697.79;108931;1281;22383;-86
2022/06/07 08:09:17;;;;;;;6.00;3.80;;;;;;;23.96;59.31;97702.43;109219;1280;22293;-82
2022/06/07 08:11:45;;;;;;;5.90;4.10;;;;;;;23.91;60.00;97699.36;109169;1281;22342;-82
2022/06/07 08:14:18;;;;;;;7.40;4.00;;;;;;;23.96;59.98;97698.66;108792;1281;22527;-83
2022/06/07 08:16:46;;;;;;;5.20;3.80;;;;;;;23.99;59.96;97700.23;108890;1281;22293;-82
2022/06/07 08:19:14;;;;;;;4.90;3.90;;;;;;;24.02;59.84;97705.65;109158;1281;22494;-82
2022/06/07 08:21:42;;;;;;;5.30;3.80;;;;;;;24.01;59.70;97711.79;108815;1281;22359;-82
2022/06/07 08:24:10;;;;;;;4.60;3.60;;;;;;;24.04;59.97;97714.70;108865;1281;22410;-82
2022/06/07 08:26:39;;;;;;;4.90;4.00;;;;;;;24.17;59.91;97709.98;108787;1281;22325;-81
2022/06/07 08:29:09;;;;;;;5.90;3.70;;;;;;;24.31;59.77;97704.09;108776;1281;22516;-82
2022/06/07 08:31:37;;;;;;;4.20;3.70;;;;;;;24.43;59.14;97703.45;108828;1281;23041;-81
2022/06/07 08:39:40;;;;;;;5.90;4.20;;;;;;;24.64;58.57;97698.15;108909;1281;22425;-82
2022/06/07 08:42:26;;;;;;;5.10;4.00;;;;;;;24.76;58.82;97691.98;108950;1281;23595;-91
2022/06/07 08:45:05;;;;;;;4.30;3.20;;;;;;;24.81;57.43;97695.59;109356;1280;23170;-86
2022/06/07 08:47:35;;;;;;;6.10;3.60;;;;;;;24.84;57.65;97690.08;109061;1281;22999;-89
2022/06/07 08:50:28;;;;;;;5.10;4.10;;;;;;;24.94;57.44;97684.86;109294;1281;23059;-88
2022/06/07 08:53:01;;;;;;;5.90;3.70;;;;;;;25.07;57.50;97675.66;109307;1281;22419;-88
2022/06/07 08:55:40;;;;;;;5.00;3.50;;;;;;;25.07;55.16;97677.40;109386;1281;22562;-89
2022/06/07 08:58:22;;;;;;;5.00;3.70;;;;;;;24.99;55.50;97677.20;109444;1281;23431;-89
2022/06/07 09:00:57;;;;;;;5.90;3.70;;;;;;;25.09;55.18;97682.98;109411;1281;22371;-90
2022/06/07 09:03:34;;;;;;;7.90;3.50;;;;;;;25.22;55.91;97685.31;109117;1281;23220;-87
2022/06/07 09:06:18;;;;;;;3.50;3.20;;;;;;;25.46;56.05;97676.92;109417;1281;22408;-90
2022/06/07 09:08:54;;;;;;;4.30;3.70;;;;;;;25.61;52.28;97682.96;109243;1281;22316;-89
2022/06/07 09:14:26;;;;;;;5.60;3.30;;;;;;;25.47;52.86;97670.37;109197;1281;22400;-88
2022/06/07 09:16:56;;;;;;;3.80;3.40;;;;;;;25.54;53.32;97674.98;108865;1281;23004;-90
2022/06/07 09:19:28;;;;;;;5.70;3.60;;;;;;;25.71;52.94;97667.37;108655;1281;23313;-90
2022/06/07 09:22:00;;;;;;;3.70;3.30;;;;;;;25.78;51.62;97668.04;108829;1281;22257;-88
2022/06/07 09:24:32;;;;;;;5.40;3.90;;;;;;;25.55;50.27;97660.78;108789;1281;22362;-86
2022/06/07 09:28:01;;;;;;;4.60;3.70;;;;;;;25.51;51.64;97662.46;109196;1280;22481;-85
2022/06/07 09:31:49;;;;;;;4.60;3.50;;;;;;;25.68;50.54;97662.35;108909;1281;22435;-86
2022/06/07 09:35:53;;;;;;;4.10;3.00;;;;;;;25.85;50.08;97655.88;108812;1281;22233;-89
2022/06/07 09:39:51;;;;;;;4.30;3.30;;;;;;;25.83;48.80;97652.33;109206;1280;22279;-89
2022/06/07 09:43:58;;;;;;;4.40;3.10;;;;;;;25.63;48.08;97651.52;109221;1281;22363;-86
2022/06/07 09:47:50;;;;;;;4.30;3.40;;;;;;;25.47;50.16;97644.04;108175;1289;22399;-89
2022/06/07 09:51:42;;;;;;;4.50;3.30;;;;;;;25.52;49.08;97644.49;107239;1297;22372;-88
2022/06/07 09:54:25;;;;;;;3.70;3.20;;;;;;;25.22;49.08;97638.29;106750;1302;22409;-88
2022/06/07 09:57:08;;;;;;;6.50;3.50;;;;;;;25.19;48.89;97633.89;106752;1302;22390;-88
2022/06/07 09:59:54;;;;;;;4.60;3.40;;;;;;;25.22;49.16;97631.20;106862;1302;22291;-88
2022/06/07 10:02:36;;;;;;;6.00;3.60;;;;;;;25.37;49.28;97623.63;106754;1303;22421;-89
2022/06/07 10:05:13;;;;;;;4.60;3.30;;;;;;;25.60;49.79;97618.89;106761;1303;22319;-88
2022/06/07 10:07:53;;;;;;;5.10;3.10;;;;;;;25.71;49.19;97621.49;106865;1302;22452;-86
2022/06/07 10:10:48;;;;;;;7.70;3.50;;;;;;;25.80;49.10;97618.90;106857;1301;23317;-87
2022/06/07 10:13:32;;;;;;;5.20;3.40;;;;;;;25.82;47.94;97618.59;106748;1303;22590;-89
2022/06/07 10:15:59;;;;;;;;;;;;;;;25.64;47.55;97613.73;106863;1303;22592;-88
2022/06/07 10:18:45;;;;;;;4.50;3.50;;;;;;;25.46;48.31;97611.43;106851;1303;22450;-87
2022/06/07 10:21:44;;;;;;;7.40;3.50;;;;;;;25.38;48.58;97611.48;106762;1297;211988;-88
2022/06/07 10:24:43;;;;;;;6.20;3.60;;;;;;;25.42;49.09;97607.83;107325;1296;22371;-85
2022/06/07 10:27:19;;;;;;;4.40;3.50;;;;;;;25.43;48.42;97606.33;107723;1288;23129;-86
2022/06/07 10:30:26;;;;;;;4.10;3.30;;;;;;;25.33;48.92;97607.73;107971;1286;22435;-86
2022/06/07 10:33:21;;;;;;;5.00;3.40;;;;;;;25.36;48.65;97602.11;109178;1281;23185;-86
2022/06/07 10:35:49;;;;;;;;;;;;;;;25.34;48.24;97597.17;109230;1281;22517;-86
2022/06/07 10:38:39;;;;;;;5.00;3.40;;;;;;;25.33;47.70;97598.91;109162;1280;22432;-86
2022/06/07 10:41:28;;;;;;;4.20;3.30;;;;;;;25.32;48.05;97597.48;109135;1280;22471;-87
2022/06/07 10:44:09;;;;;;;5.00;3.50;;;;;;;25.25;47.29;97592.18;109171;1281;23159;-89
2022/06/07 10:46:41;;;;;;;4.40;3.10;;;;;;;25.12;48.56;97584.14;108843;1281;22309;-90
2022/06/07 10:49:27;;;;;;;4.40;3.00;;;;;;;25.23;48.92;97585.02;108717;1281;22377;-89
2022/06/07 10:52:24;;;;;;;7.10;3.60;;;;;;;25.35;48.86;97583.52;109189;1281;22299;-90
2022/06/07 10:55:09;;;;;;;8.00;3.80;;;;;;;25.54;49.02;97577.02;109213;1281;22488;-89
2022/06/07 10:57:40;;;;;;;5.10;3.90;;;;;;;25.71;48.99;97572.45;108906;1281;22306;-89
2022/06/07 11:00:30;;;;;;;4.30;3.70;;;;;;;25.83;48.62;97574.17;108881;1281;23058;-90
2022/06/07 11:03:07;;;;;;;3.30;2.70;;;;;;;26.12;48.51;97570.37;109194;1280;23248;-90
2022/06/07 11:11:40;;;;;;;3.00;2.70;;;;;;;27.39;45.98;97569.30;109204;1281;22983;-93
2022/06/07 11:14:12;;;;;;;4.40;2.50;;;;;;;27.74;45.52;97556.88;108938;1281;23187;-91
2022/06/07 11:17:01;;;;;;;4.50;3.10;;;;;;;28.16;45.30;97557.09;108929;1281;22567;-91
2022/06/07 11:19:31;;;;;;;3.60;2.60;;;;;;;28.10;44.76;97555.23;109013;1281;22439;-90
2022/06/07 11:22:05;;;;;;;3.30;2.50;;;;;;;28.03;44.46;97551.88;108843;1282;22376;-91
2022/06/07 11:24:34;;;;;;;;;;;;;;;28.17;45.10;97551.16;108940;1281;22272;-91
2022/06/07 11:27:14;;;;;;;4.10;2.70;;;;;;;28.44;45.88;97539.02;109290;1281;22259;-88
2022/06/07 11:29:43;;;;;;;4.00;2.70;;;;;;;28.81;44.25;97536.73;109217;1280;22297;-89
2022/06/07 11:32:47;;;;;;;3.40;2.30;;;;;;;29.01;41.54;97538.38;109287;1281;23071;-92
2022/06/07 11:36:06;;;;;;;3.90;2.40;;;;;;;29.07;42.81;97535.65;109274;1281;22277;-92
2022/06/07 11:38:57;;;;;;;4.50;2.50;;;;;;;29.44;42.91;97535.34;108508;1288;22580;-91
2022/06/07 11:41:37;;;;;;;3.10;2.30;;;;;;;29.64;39.71;97531.87;108457;1288;22442;-92
2022/06/07 11:44:07;;;;;;;3.70;2.30;;;;;;;29.69;40.02;97532.52;108418;1287;22420;-87
2022/06/07 11:46:36;;;;;;;4.30;2.70;;;;;;;29.69;39.26;97530.55;108280;1287;22553;-87
2022/06/07 11:49:22;;;;;;;4.40;2.10;;;;;;;29.94;40.70;97531.80;108285;1287;22416;-87
2022/06/07 11:51:54;;;;;;;4.10;2.90;;;;;;;30.32;39.88;97525.41;108332;1288;22554;-86
2022/06/07 11:54:28;;;;;;;4.70;2.60;;;;;;;30.53;39.57;97527.20;108134;1289;22349;-86
2022/06/07 11:57:00;;;;;;;4.30;2.60;;;;;;;30.72;40.41;97521.33;108275;1288;22604;-86
2022/06/07 11:59:43;;;;;;;4.30;2.70;;;;;;;31.06;39.27;97521.99;108140;1289;23111;-88
2022/06/07 12:02:14;;;;;;;4.40;3.00;;;;;;;31.07;37.78;97517.50;108264;1287;22601;-88
2022/06/07 12:04:45;;;;;;;5.00;2.30;;;;;;;31.03;36.09;97516.77;108281;1288;22405;-85
2022/06/07 12:07:22;;;;;;;4.80;2.70;;;;;;;30.91;36.61;97511.96;108118;1289;22356;-88
2022/06/07 12:09:57;;;;;;;4.80;2.30;;;;;;;31.08;36.94;97503.17;108589;1278;22403;-86
2022/06/07 12:12:37;;;;;;;7.70;2.40;;;;;;;31.25;35.88;97496.90;108916;1281;23082;-88
2022/06/07 12:15:17;;;;;;;3.20;2.00;;;;;;;31.46;37.08;97498.78;108877;1281;22400;-86
2022/06/07 12:18:00;;;;;;;4.30;2.30;;;;;;;31.65;34.68;97490.81;108943;1281;22344;-87
2022/06/07 12:20:36;;;;;;;3.20;2.20;;;;;;;31.60;35.55;97489.88;108919;1281;22422;-87
2022/06/07 12:23:22;;;;;;;4.00;2.40;;;;;;;31.82;35.79;97489.31;109152;1281;22369;-87
2022/06/07 12:25:56;;;;;;;3.40;2.30;;;;;;;32.00;35.91;97481.79;108874;1281;22444;-87
2022/06/07 12:28:31;;;;;;;3.50;2.30;;;;;;;32.17;35.68;97475.98;108841;1281;22270;-85